Time;durP1;ratioP1;P1;durP2;ratioP2;P2;SDS_P1;SDS_P2;PMS_P1;PMS_P2;Temp;Humidity;BMP_temperature;BMP_pressure;BME280_temperature;BME280_humidity;BME280_pressure;Samples;Min_cycle;Max_cycle;Signal;HPM_P1;HPM_P2
2023/06/02 00:01:14;;;;;;;6.25;0.98;;;10.50;99.90;;;;;;5033173;28;20056;-67
2023/06/02 00:03:41;;;;;;;0.35;0.35;;;10.50;99.90;;;;;;5033428;28;20659;-66
2023/06/02 00:06:09;;;;;;;0.65;0.50;;;10.50;99.90;;;;;;5066840;28;20045;-67
2023/06/02 00:08:38;;;;;;;0.20;0.20;;;10.50;99.90;;;;;;5069518;28;20488;-66
2023/06/02 00:11:03;;;;;;;0.10;0.10;;;10.50;99.90;;;;;;5036732;28;20164;-66
2023/06/02 00:13:29;;;;;;;4.28;1.27;;;10.50;99.90;;;;;;5030280;28;20488;-66
2023/06/02 00:15:55;;;;;;;4.22;1.70;;;10.50;99.90;;;;;;5035993;28;20453;-67
2023/06/02 00:18:22;;;;;;;0.10;0.10;;;10.50;99.90;;;;;;5035172;28;20048;-67
2023/06/02 00:20:49;;;;;;;0.20;0.20;;;10.40;99.90;;;;;;5069508;28;20056;-66
2023/06/02 00:23:15;;;;;;;0.05;0.05;;;10.40;99.90;;;;;;5039220;28;20067;-67
2023/06/02 00:25:41;;;;;;;0.17;0.15;;;10.40;99.90;;;;;;5038993;28;20047;-68
2023/06/02 00:28:06;;;;;;;11.63;1.08;;;10.40;99.90;;;;;;5035294;28;20059;-67
2023/06/02 00:30:34;;;;;;;0.08;0.08;;;10.40;99.90;;;;;;5041249;28;20068;-67
2023/06/02 00:33:00;;;;;;;0.05;0.05;;;10.40;99.90;;;;;;5033776;28;20041;-67
2023/06/02 00:35:25;;;;;;;0.15;0.13;;;10.40;99.90;;;;;;5061719;28;20037;-67
2023/06/02 00:37:52;;;;;;;0.20;0.20;;;10.40;99.90;;;;;;5035378;28;20412;-67
2023/06/02 00:40:18;;;;;;;13.93;1.70;;;10.40;99.90;;;;;;5068087;28;20068;-66
2023/06/02 00:42:43;;;;;;;0.00;0.00;;;10.40;99.90;;;;;;5071562;28;20083;-67
2023/06/02 00:45:09;;;;;;;2.58;0.60;;;10.40;99.90;;;;;;5031195;28;20044;-67
2023/06/02 00:47:35;;;;;;;6.43;0.50;;;10.30;99.90;;;;;;5037302;28;20119;-66
2023/06/02 00:50:01;;;;;;;0.20;0.20;;;10.40;99.90;;;;;;5036509;28;20040;-67
2023/06/02 00:52:27;;;;;;;1.05;0.25;;;10.40;99.90;;;;;;5035673;28;20044;-65
2023/06/02 00:54:53;;;;;;;0.35;0.35;;;10.40;99.90;;;;;;5036078;28;20107;-66
2023/06/02 00:57:19;;;;;;;0.60;0.20;;;10.30;99.90;;;;;;5068367;28;20033;-68
2023/06/02 00:59:47;;;;;;;1.00;0.10;;;10.30;99.90;;;;;;5035406;28;20503;-67
2023/06/02 01:02:13;;;;;;;0.52;0.30;;;10.30;99.90;;;;;;5036006;28;20404;-68
2023/06/02 01:04:40;;;;;;;0.35;0.32;;;10.20;99.90;;;;;;5066569;28;20484;-67
2023/06/02 01:07:07;;;;;;;0.22;0.22;;;10.30;99.90;;;;;;5056219;28;20048;-68
2023/06/02 01:09:34;;;;;;;5.05;1.65;;;10.30;99.90;;;;;;5063153;28;20033;-68
2023/06/02 01:12:00;;;;;;;0.10;0.10;;;10.30;99.90;;;;;;5040416;28;20479;-68
2023/06/02 01:14:25;;;;;;;0.20;0.20;;;10.20;99.90;;;;;;5045071;28;20259;-68
2023/06/02 01:16:51;;;;;;;0.28;0.28;;;10.20;99.90;;;;;;5040394;28;20049;-66
2023/06/02 01:19:21;;;;;;;1.23;0.28;;;10.20;99.90;;;;;;5035960;28;20041;-66
2023/06/02 01:21:57;;;;;;;3.00;2.22;;;10.30;99.90;;;;;;5038345;28;20045;-68
2023/06/02 01:24:34;;;;;;;1.75;0.90;;;10.30;99.90;;;;;;5071374;28;20032;-66
2023/06/02 01:27:00;;;;;;;1.95;0.90;;;10.30;99.90;;;;;;5038341;28;20045;-67
2023/06/02 01:29:26;;;;;;;0.43;0.35;;;10.30;99.90;;;;;;5064601;28;20056;-67
2023/06/02 01:31:55;;;;;;;0.30;0.30;;;10.30;99.90;;;;;;5030844;28;20076;-67
2023/06/02 01:34:34;;;;;;;0.08;0.08;;;10.20;99.90;;;;;;5033889;28;20049;-67
2023/06/02 01:37:01;;;;;;;0.80;0.30;;;10.20;99.90;;;;;;5034665;28;20254;-67
2023/06/02 01:39:28;;;;;;;0.15;0.10;;;10.20;99.90;;;;;;5030809;28;22016;-66
2023/06/02 01:41:55;;;;;;;0.30;0.30;;;10.20;99.90;;;;;;5067720;28;20049;-67
2023/06/02 01:44:21;;;;;;;0.00;0.00;;;10.20;99.90;;;;;;5034366;28;20079;-67
2023/06/02 01:46:48;;;;;;;0.10;0.10;;;10.20;99.90;;;;;;5039576;28;20048;-66
2023/06/02 01:49:17;;;;;;;0.10;0.10;;;10.20;99.90;;;;;;5035031;28;20095;-66
2023/06/02 01:51:44;;;;;;;0.93;0.20;;;10.30;99.90;;;;;;5033341;28;20400;-66
2023/06/02 01:54:10;;;;;;;0.28;0.15;;;10.30;99.90;;;;;;5035597;28;20045;-66
2023/06/02 01:56:36;;;;;;;0.60;0.60;;;10.20;99.90;;;;;;5031990;28;20507;-69
2023/06/02 01:59:03;;;;;;;0.10;0.10;;;10.20;99.90;;;;;;5029426;28;20576;-67
2023/06/02 02:01:29;;;;;;;0.13;0.13;;;10.20;99.90;;;;;;5039728;28;20033;-67
2023/06/02 02:03:54;;;;;;;0.20;0.20;;;10.30;99.90;;;;;;5035433;28;20044;-67
2023/06/02 02:06:29;;;;;;;2.10;0.30;;;10.30;99.90;;;;;;5035306;28;20500;-67
2023/06/02 02:08:59;;;;;;;0.98;0.20;;;10.30;99.90;;;;;;5066624;28;20163;-67
2023/06/02 02:11:28;;;;;;;3.63;0.40;;;10.20;99.90;;;;;;5033295;28;20040;-68
2023/06/02 02:13:57;;;;;;;0.85;0.20;;;10.20;99.90;;;;;;5072393;28;20056;-67
2023/06/02 02:16:23;;;;;;;0.30;0.15;;;10.10;99.90;;;;;;5031912;28;20128;-67
2023/06/02 02:18:52;;;;;;;3.35;0.52;;;10.10;99.90;;;;;;5033035;28;20128;-68
2023/06/02 02:21:17;;;;;;;4.03;0.30;;;10.10;99.90;;;;;;5067271;28;20044;-68
2023/06/02 02:23:43;;;;;;;0.00;0.00;;;10.10;99.90;;;;;;5068785;28;20103;-67
2023/06/02 02:26:09;;;;;;;0.80;0.77;;;10.10;99.90;;;;;;5035510;28;20045;-66
2023/06/02 02:28:35;;;;;;;0.10;0.03;;;10.00;99.90;;;;;;5065278;28;20037;-67
2023/06/02 02:31:00;;;;;;;0.10;0.10;;;10.00;99.90;;;;;;5030965;28;20438;-68
2023/06/02 02:33:26;;;;;;;3.83;2.08;;;10.00;99.90;;;;;;5035519;28;20083;-67
2023/06/02 02:35:53;;;;;;;0.00;0.00;;;9.90;99.90;;;;;;5037384;28;20396;-68
2023/06/02 02:38:19;;;;;;;0.00;0.00;;;9.90;99.90;;;;;;5032378;28;20033;-67
2023/06/02 02:40:45;;;;;;;0.00;0.00;;;9.90;99.90;;;;;;5066533;28;20041;-68
2023/06/02 02:43:11;;;;;;;0.30;0.30;;;9.90;99.90;;;;;;5062896;28;20535;-68
2023/06/02 02:45:37;;;;;;;0.40;0.40;;;9.90;99.90;;;;;;5034155;28;21019;-68
2023/06/02 02:48:03;;;;;;;0.65;0.60;;;10.00;99.90;;;;;;5033890;28;20327;-68
2023/06/02 02:50:28;;;;;;;0.22;0.22;;;9.90;99.90;;;;;;5063991;28;20036;-67
2023/06/02 02:52:55;;;;;;;0.30;0.10;;;9.90;99.90;;;;;;5064606;28;20365;-67
2023/06/02 02:55:20;;;;;;;0.50;0.50;;;9.90;99.90;;;;;;5072100;28;20161;-67
2023/06/02 02:57:46;;;;;;;1.02;0.45;;;9.90;99.90;;;;;;5068286;28;20049;-67
2023/06/02 03:00:13;;;;;;;0.00;0.00;;;9.90;99.90;;;;;;5065756;28;20131;-68
2023/06/02 03:02:39;;;;;;;1.38;0.52;;;9.90;99.90;;;;;;5031481;28;20472;-67
2023/06/02 03:05:06;;;;;;;0.08;0.08;;;9.90;99.90;;;;;;5040092;28;20044;-68
2023/06/02 03:07:34;;;;;;;0.10;0.10;;;9.90;99.90;;;;;;5033937;28;20194;-68
2023/06/02 03:10:00;;;;;;;0.80;0.63;;;9.80;99.90;;;;;;5035086;28;20037;-68
2023/06/02 03:12:25;;;;;;;0.75;0.75;;;9.90;99.90;;;;;;5032011;28;20047;-67
2023/06/02 03:14:51;;;;;;;0.20;0.20;;;9.80;99.90;;;;;;5033915;28;20503;-68
2023/06/02 03:17:17;;;;;;;0.32;0.00;;;9.80;99.90;;;;;;5035712;28;20546;-67
2023/06/02 03:19:43;;;;;;;0.40;0.40;;;9.80;99.90;;;;;;5063355;28;20064;-67
2023/06/02 03:22:09;;;;;;;0.30;0.30;;;9.80;99.90;;;;;;5068736;28;20037;-68
2023/06/02 03:24:34;;;;;;;0.13;0.13;;;9.70;99.90;;;;;;5036292;28;20115;-67
2023/06/02 03:27:00;;;;;;;7.18;0.65;;;9.70;99.90;;;;;;5053480;28;20472;-68
2023/06/02 03:29:26;;;;;;;0.08;0.08;;;9.70;99.90;;;;;;5065504;28;20041;-67
2023/06/02 03:31:54;;;;;;;0.28;0.25;;;9.70;99.90;;;;;;5069567;28;20408;-67
2023/06/02 03:34:20;;;;;;;0.10;0.10;;;9.70;99.90;;;;;;5034811;28;20051;-68
2023/06/02 03:36:46;;;;;;;0.25;0.25;;;9.80;99.90;;;;;;5041627;28;20045;-67
2023/06/02 03:39:12;;;;;;;0.10;0.10;;;9.80;99.90;;;;;;5071950;28;20037;-67
2023/06/02 03:41:39;;;;;;;0.10;0.10;;;9.80;99.90;;;;;;5065193;28;20069;-67
2023/06/02 03:44:05;;;;;;;0.00;0.00;;;9.90;99.90;;;;;;5068260;28;20038;-68
2023/06/02 03:46:30;;;;;;;0.32;0.20;;;9.90;99.90;;;;;;5031088;28;20052;-66
2023/06/02 03:48:56;;;;;;;2.20;1.00;;;9.90;99.90;;;;;;5036063;28;20039;-67
2023/06/02 03:51:22;;;;;;;0.40;0.40;;;9.90;99.90;;;;;;5036087;28;20029;-66
2023/06/02 03:53:51;;;;;;;0.80;0.55;;;10.00;99.90;;;;;;5030796;28;20178;-67
2023/06/02 03:56:19;;;;;;;2.55;0.75;;;10.00;99.90;;;;;;5037073;28;20045;-67
2023/06/02 03:58:45;;;;;;;1.60;0.50;;;10.00;99.90;;;;;;5065339;28;20044;-67
2023/06/02 04:01:12;;;;;;;0.10;0.10;;;10.10;99.90;;;;;;5040549;28;20056;-67
2023/06/02 04:03:37;;;;;;;2.25;0.82;;;10.10;99.90;;;;;;5038851;28;20041;-68
2023/06/02 04:06:07;;;;;;;0.15;0.15;;;10.00;99.90;;;;;;5041047;28;20369;-68
2023/06/02 04:08:33;;;;;;;0.30;0.28;;;10.10;99.90;;;;;;5072164;28;20123;-67
2023/06/02 04:10:59;;;;;;;0.80;0.20;;;10.10;99.90;;;;;;5039567;28;21617;-68
2023/06/02 04:13:25;;;;;;;0.15;0.15;;;10.10;99.90;;;;;;5036731;28;20041;-68
2023/06/02 04:15:51;;;;;;;0.30;0.30;;;10.10;99.90;;;;;;5040606;28;20033;-68
2023/06/02 04:18:16;;;;;;;0.28;0.25;;;10.10;99.90;;;;;;5038808;28;20040;-68
2023/06/02 04:20:42;;;;;;;0.20;0.20;;;10.10;99.90;;;;;;5037567;28;20052;-68
2023/06/02 04:23:08;;;;;;;0.35;0.20;;;10.10;99.90;;;;;;5037193;28;20133;-67
2023/06/02 04:25:33;;;;;;;10.23;1.20;;;10.20;99.90;;;;;;5074728;28;20472;-67
2023/06/02 04:27:59;;;;;;;0.10;0.10;;;10.20;99.90;;;;;;5042327;28;20029;-66
2023/06/02 04:30:24;;;;;;;0.10;0.10;;;10.20;99.90;;;;;;5040639;28;20040;-67
2023/06/02 04:32:50;;;;;;;0.20;0.20;;;10.20;99.90;;;;;;5067984;28;20041;-67
2023/06/02 04:35:16;;;;;;;1.55;1.35;;;10.10;99.90;;;;;;5036526;28;20130;-68
2023/06/02 04:37:44;;;;;;;0.10;0.10;;;10.20;99.90;;;;;;5038978;28;20045;-66
2023/06/02 04:40:10;;;;;;;0.00;0.00;;;10.20;99.90;;;;;;5074152;28;20048;-68
2023/06/02 04:42:38;;;;;;;0.00;0.00;;;10.30;99.90;;;;;;5036651;28;20079;-68
2023/06/02 04:45:11;;;;;;;0.17;0.17;;;10.30;99.90;;;;;;5039414;28;20060;-68
2023/06/02 04:47:38;;;;;;;0.10;0.10;;;10.30;99.90;;;;;;5037344;28;20037;-68
2023/06/02 04:50:09;;;;;;;1.45;0.32;;;10.30;99.90;;;;;;5069671;28;20036;-68
2023/06/02 04:52:42;;;;;;;0.63;0.63;;;10.20;99.90;;;;;;5041593;28;20441;-68
2023/06/02 04:55:08;;;;;;;0.30;0.15;;;10.30;99.90;;;;;;5043579;28;20428;-68
2023/06/02 04:57:34;;;;;;;2.40;0.88;;;10.30;99.90;;;;;;5068739;28;20399;-69
2023/06/02 05:00:02;;;;;;;0.00;0.00;;;10.30;99.90;;;;;;5038491;28;20079;-68
2023/06/02 05:02:27;;;;;;;0.43;0.17;;;10.30;99.90;;;;;;5068172;28;20045;-68
2023/06/02 05:04:53;;;;;;;0.20;0.10;;;10.40;99.90;;;;;;5041769;28;20052;-69
2023/06/02 05:07:19;;;;;;;0.00;0.00;;;10.40;99.90;;;;;;5072674;28;20037;-68
2023/06/02 05:09:44;;;;;;;0.30;0.30;;;10.50;99.90;;;;;;5066509;28;20056;-68
2023/06/02 05:12:10;;;;;;;0.98;0.15;;;10.50;99.90;;;;;;5039969;28;20047;-68
2023/06/02 05:14:36;;;;;;;0.52;0.52;;;10.50;99.90;;;;;;5040294;28;20051;-68
2023/06/02 05:17:02;;;;;;;0.20;0.20;;;10.50;99.90;;;;;;5042947;28;20068;-68
2023/06/02 05:19:28;;;;;;;1.30;0.52;;;10.50;99.90;;;;;;5038184;28;20060;-68
2023/06/02 05:21:54;;;;;;;7.57;1.38;;;10.50;99.90;;;;;;5078222;28;20033;-69
2023/06/02 05:24:20;;;;;;;0.57;0.32;;;10.60;99.90;;;;;;5044133;28;20434;-69
2023/06/02 05:26:45;;;;;;;0.13;0.13;;;10.60;99.90;;;;;;5039733;28;20067;-68
2023/06/02 05:29:11;;;;;;;0.00;0.00;;;10.60;99.90;;;;;;5030058;28;20064;-69
2023/06/02 05:31:36;;;;;;;0.32;0.32;;;10.60;99.90;;;;;;5037936;28;20033;-68
2023/06/02 05:34:02;;;;;;;0.03;0.03;;;10.60;99.90;;;;;;5035978;28;20041;-68
2023/06/02 05:36:28;;;;;;;2.08;0.30;;;10.70;99.90;;;;;;5041765;28;20044;-69
2023/06/02 05:38:54;;;;;;;12.57;0.50;;;10.70;99.90;;;;;;5039142;28;20056;-68
2023/06/02 05:41:20;;;;;;;0.30;0.30;;;10.70;99.90;;;;;;5036025;28;20047;-68
2023/06/02 05:43:45;;;;;;;1.30;0.50;;;10.80;99.90;;;;;;5076403;28;20041;-68
2023/06/02 05:46:11;;;;;;;0.00;0.00;;;10.80;99.90;;;;;;5033627;28;20048;-68
2023/06/02 05:48:38;;;;;;;0.70;0.32;;;10.90;99.90;;;;;;5035860;28;20084;-67
2023/06/02 05:51:03;;;;;;;0.30;0.30;;;10.90;99.90;;;;;;5041035;28;20128;-69
2023/06/02 05:53:29;;;;;;;0.63;0.63;;;10.90;99.90;;;;;;5060463;28;20810;-68
2023/06/02 05:55:55;;;;;;;0.10;0.10;;;11.00;99.90;;;;;;5048252;28;20047;-67
2023/06/02 05:58:20;;;;;;;0.40;0.40;;;11.00;99.90;;;;;;5042724;28;20056;-67
2023/06/02 06:00:46;;;;;;;1.25;0.63;;;11.10;99.90;;;;;;5041893;28;20037;-67
2023/06/02 06:03:14;;;;;;;1.63;0.65;;;11.10;99.90;;;;;;5075545;28;20056;-68
2023/06/02 06:05:39;;;;;;;0.32;0.32;;;11.20;99.90;;;;;;5042093;28;20111;-67
2023/06/02 06:08:05;;;;;;;0.50;0.30;;;11.20;99.90;;;;;;5071633;28;20159;-67
2023/06/02 06:10:31;;;;;;;0.40;0.40;;;11.30;99.90;;;;;;5048471;28;20398;-66
2023/06/02 06:12:56;;;;;;;0.22;0.08;;;11.30;99.90;;;;;;5043797;28;20049;-66
2023/06/02 06:15:22;;;;;;;0.00;0.00;;;11.40;99.90;;;;;;5044856;28;20033;-67
2023/06/02 06:17:49;;;;;;;0.10;0.10;;;11.30;99.90;;;;;;5036712;28;20079;-65
2023/06/02 06:20:15;;;;;;;5.47;0.57;;;11.40;99.90;;;;;;5018107;28;20052;-68
2023/06/02 06:22:41;;;;;;;2.42;0.82;;;11.50;99.90;;;;;;5033543;28;20041;-68
2023/06/02 06:25:08;;;;;;;0.43;0.30;;;11.50;99.90;;;;;;5069947;28;20033;-67
2023/06/02 06:27:34;;;;;;;1.02;1.00;;;11.50;99.90;;;;;;5031756;28;20468;-68
2023/06/02 06:29:59;;;;;;;0.22;0.22;;;11.50;99.90;;;;;;5026751;28;20174;-68
2023/06/02 06:32:25;;;;;;;0.45;0.45;;;11.60;99.90;;;;;;5033163;28;20037;-68
2023/06/02 06:34:50;;;;;;;0.20;0.10;;;11.60;99.90;;;;;;5035928;28;20488;-68
2023/06/02 06:37:16;;;;;;;0.03;0.03;;;11.60;99.90;;;;;;5036804;28;20038;-66
2023/06/02 06:39:42;;;;;;;4.68;0.10;;;11.60;99.90;;;;;;5037823;28;20496;-67
2023/06/02 06:42:07;;;;;;;1.85;1.40;;;11.70;99.90;;;;;;5037900;28;20051;-67
2023/06/02 06:44:33;;;;;;;0.22;0.22;;;11.70;99.90;;;;;;5037541;28;20045;-67
2023/06/02 06:46:59;;;;;;;0.90;0.52;;;11.70;99.90;;;;;;5070968;28;20038;-68
2023/06/02 06:49:24;;;;;;;1.85;0.73;;;11.80;99.90;;;;;;5018480;28;20456;-67
2023/06/02 06:51:50;;;;;;;0.40;0.40;;;11.90;99.90;;;;;;5045242;28;20045;-67
2023/06/02 06:54:16;;;;;;;0.88;0.75;;;11.90;99.90;;;;;;5038700;28;20049;-68
2023/06/02 06:56:43;;;;;;;9.73;0.75;;;12.00;99.90;;;;;;5039030;28;20037;-65
2023/06/02 06:59:10;;;;;;;2.38;0.40;;;12.00;99.90;;;;;;5069515;28;20091;-67
2023/06/02 07:01:35;;;;;;;1.27;1.17;;;12.10;99.90;;;;;;5035569;28;20044;-67
2023/06/02 07:04:01;;;;;;;4.88;0.50;;;12.10;99.90;;;;;;5036630;28;20400;-67
2023/06/02 07:06:26;;;;;;;0.45;0.28;;;12.10;99.90;;;;;;5032760;28;20037;-66
2023/06/02 07:08:52;;;;;;;0.40;0.40;;;12.20;99.90;;;;;;5039211;28;20085;-68
2023/06/02 07:11:18;;;;;;;0.20;0.20;;;12.30;99.90;;;;;;5070720;28;20460;-67
2023/06/02 07:13:43;;;;;;;0.70;0.28;;;12.30;99.90;;;;;;5034376;28;20087;-67
2023/06/02 07:16:09;;;;;;;0.10;0.10;;;12.30;99.90;;;;;;5072008;28;20102;-69
2023/06/02 07:18:34;;;;;;;0.50;0.50;;;12.40;99.90;;;;;;5031324;28;20055;-67
2023/06/02 07:21:00;;;;;;;0.47;0.20;;;12.40;99.90;;;;;;5071402;28;20323;-68
2023/06/02 07:23:26;;;;;;;1.35;0.70;;;12.40;99.90;;;;;;5034228;28;20036;-68
2023/06/02 07:25:51;;;;;;;0.43;0.43;;;12.50;99.90;;;;;;5035148;28;20036;-67
2023/06/02 07:28:17;;;;;;;0.70;0.57;;;12.50;99.90;;;;;;5037850;28;20083;-68
2023/06/02 07:30:52;;;;;;;0.30;0.20;;;12.50;99.90;;;;;;5039207;28;20392;-66
2023/06/02 07:33:18;;;;;;;0.35;0.35;;;12.60;99.90;;;;;;5033149;28;20036;-67
2023/06/02 07:35:44;;;;;;;0.52;0.40;;;12.60;99.90;;;;;;5035674;28;20091;-68
2023/06/02 07:38:10;;;;;;;1.00;0.73;;;12.60;99.90;;;;;;5070653;28;20045;-67
2023/06/02 07:40:35;;;;;;;0.30;0.30;;;12.60;99.90;;;;;;5040056;28;20124;-67
2023/06/02 07:43:01;;;;;;;0.22;0.22;;;12.60;99.90;;;;;;5036786;28;20119;-68
2023/06/02 07:45:26;;;;;;;0.15;0.15;;;12.70;99.90;;;;;;5033908;28;20047;-67
2023/06/02 07:47:52;;;;;;;5.72;0.90;;;12.70;99.90;;;;;;5037758;28;20044;-65
2023/06/02 07:50:18;;;;;;;0.57;0.57;;;12.80;99.90;;;;;;5036633;28;20029;-68
2023/06/02 07:52:47;;;;;;;0.10;0.10;;;12.80;99.90;;;;;;5040774;28;20044;-68
2023/06/02 07:55:13;;;;;;;6.85;1.38;;;12.80;99.90;;;;;;5041648;28;20063;-67
2023/06/02 07:57:39;;;;;;;0.63;0.63;;;12.90;99.90;;;;;;5031924;28;20045;-66
2023/06/02 08:00:15;;;;;;;0.75;0.65;;;13.00;99.90;;;;;;5038747;28;20041;-65
2023/06/02 08:02:48;;;;;;;0.93;0.57;;;13.10;99.90;;;;;;5037657;28;20221;-67
2023/06/02 08:05:15;;;;;;;0.95;0.90;;;13.10;99.90;;;;;;5035297;28;20044;-66
2023/06/02 08:07:40;;;;;;;0.10;0.10;;;13.20;99.90;;;;;;5069308;28;20036;-67
2023/06/02 08:10:07;;;;;;;0.15;0.15;;;13.20;99.90;;;;;;5034964;28;20053;-68
2023/06/02 08:12:33;;;;;;;0.40;0.40;;;13.20;99.90;;;;;;5040102;28;20059;-68
2023/06/02 08:14:58;;;;;;;0.20;0.20;;;13.30;99.90;;;;;;5056668;28;20411;-66
2023/06/02 08:17:29;;;;;;;11.65;0.88;;;13.50;99.90;;;;;;5071045;28;20045;-66
2023/06/02 08:19:59;;;;;;;1.13;0.93;;;13.50;99.90;;;;;;5042336;28;20041;-67
2023/06/02 08:22:26;;;;;;;2.53;1.08;;;13.60;99.90;;;;;;5039113;28;20127;-68
2023/06/02 08:24:53;;;;;;;3.85;0.35;;;13.60;99.90;;;;;;5042784;28;20400;-69
2023/06/02 08:27:20;;;;;;;1.45;1.10;;;13.50;99.90;;;;;;5043707;28;20051;-64
2023/06/02 08:29:46;;;;;;;0.22;0.22;;;13.60;99.90;;;;;;5041270;28;20041;-69
2023/06/02 08:32:12;;;;;;;0.55;0.32;;;13.80;99.90;;;;;;5034349;28;20554;-69
2023/06/02 08:34:41;;;;;;;0.30;0.17;;;13.80;99.90;;;;;;5042391;28;20041;-68
2023/06/02 08:37:15;;;;;;;1.45;0.40;;;13.90;99.90;;;;;;5035735;28;20060;-68
2023/06/02 08:39:40;;;;;;;0.25;0.20;;;14.10;99.90;;;;;;5070830;28;20163;-68
2023/06/02 08:42:08;;;;;;;0.90;0.90;;;14.30;99.90;;;;;;5043304;28;20115;-67
2023/06/02 08:44:35;;;;;;;1.15;0.35;;;14.60;99.90;;;;;;5074702;28;20052;-69
2023/06/02 08:47:02;;;;;;;0.50;0.08;;;14.90;99.90;;;;;;5045252;28;20048;-67
2023/06/02 08:49:29;;;;;;;0.63;0.63;;;15.00;99.90;;;;;;5070843;28;20041;-65
2023/06/02 08:52:06;;;;;;;1.90;0.93;;;15.00;99.90;;;;;;5077781;28;20039;-66
2023/06/02 08:54:32;;;;;;;0.10;0.10;;;15.00;99.90;;;;;;5040938;28;20045;-67
2023/06/02 08:56:59;;;;;;;2.50;0.85;;;15.10;99.90;;;;;;5039881;28;20040;-67
2023/06/02 08:59:24;;;;;;;0.30;0.30;;;15.20;99.90;;;;;;5039219;28;20037;-68
2023/06/02 09:01:50;;;;;;;1.13;1.00;;;15.40;99.90;;;;;;5056645;28;20033;-68
2023/06/02 09:04:19;;;;;;;0.57;0.45;;;15.50;99.90;;;;;;5022861;28;20427;-68
2023/06/02 09:06:48;;;;;;;0.20;0.20;;;15.70;99.90;;;;;;5041307;28;20404;-69
2023/06/02 09:09:15;;;;;;;0.82;0.60;;;15.80;99.90;;;;;;5043850;28;20048;-67
2023/06/02 09:11:59;;;;;;;0.40;0.40;;;16.10;99.90;;;;;;5050813;28;20049;-67
2023/06/02 09:14:24;;;;;;;0.32;0.32;;;16.40;99.90;;;;;;5047179;28;20116;-65
2023/06/02 09:16:50;;;;;;;1.20;0.82;;;16.80;99.90;;;;;;5046209;28;20194;-66
2023/06/02 09:19:15;;;;;;;0.75;0.47;;;17.00;99.90;;;;;;5039144;28;20044;-69
2023/06/02 09:21:41;;;;;;;0.90;0.63;;;17.40;99.90;;;;;;5050280;28;20040;-68
2023/06/02 09:24:07;;;;;;;1.75;0.75;;;17.50;99.90;;;;;;5039954;28;20044;-66
2023/06/02 09:26:32;;;;;;;0.75;0.75;;;17.20;99.90;;;;;;5063989;28;20128;-69
2023/06/02 09:29:13;;;;;;;0.35;0.35;;;17.00;99.90;;;;;;5049488;28;20146;-67
2023/06/02 09:31:58;;;;;;;2.13;0.43;;;16.70;99.90;;;;;;5045122;28;20042;-69
2023/06/02 09:34:32;;;;;;;0.60;0.40;;;16.60;99.90;;;;;;5048513;28;20033;-68
2023/06/02 09:37:13;;;;;;;1.88;0.73;;;16.50;99.90;;;;;;5046888;28;20041;-68
2023/06/02 09:39:43;;;;;;;7.97;0.60;;;16.50;99.90;;;;;;5080072;28;20040;-67
2023/06/02 09:42:11;;;;;;;0.20;0.20;;;16.50;99.90;;;;;;5045337;28;20048;-67
2023/06/02 09:44:37;;;;;;;0.65;0.47;;;16.50;99.90;;;;;;5079956;28;20041;-68
2023/06/02 09:47:18;;;;;;;1.38;0.75;;;16.70;99.90;;;;;;5048367;28;20044;-68
2023/06/02 09:49:44;;;;;;;0.55;0.20;;;16.90;99.90;;;;;;5080908;28;20392;-67
2023/06/02 09:52:17;;;;;;;2.00;1.13;;;17.30;99.90;;;;;;5041601;28;20048;-67
2023/06/02 09:54:44;;;;;;;0.00;0.00;;;17.50;99.90;;;;;;5054798;28;20040;-66
2023/06/02 09:57:12;;;;;;;0.10;0.10;;;17.70;99.90;;;;;;5048185;28;20068;-66
2023/06/02 09:59:39;;;;;;;0.90;0.30;;;18.00;99.90;;;;;;5080219;28;20408;-66
2023/06/02 10:02:07;;;;;;;0.20;0.20;;;18.20;99.90;;;;;;5044440;28;20107;-66
2023/06/02 10:04:33;;;;;;;0.40;0.40;;;18.20;99.90;;;;;;5082937;28;20517;-67
2023/06/02 10:07:26;;;;;;;0.10;0.10;;;18.40;99.90;;;;;;5047468;28;20136;-67
2023/06/02 10:10:10;;;;;;;0.40;0.40;;;18.50;99.90;;;;;;5046581;28;20120;-69
2023/06/02 10:12:58;;;;;;;1.40;0.30;;;18.70;99.90;;;;;;5043287;28;20043;-67
2023/06/02 10:15:44;;;;;;;2.40;0.73;;;18.70;99.90;;;;;;5045588;28;20067;-68
2023/06/02 10:18:22;;;;;;;0.40;0.25;;;18.70;99.90;;;;;;5074303;28;20040;-67
2023/06/02 10:21:06;;;;;;;0.00;0.00;;;18.90;99.90;;;;;;5032231;28;20107;-66
2023/06/02 10:23:57;;;;;;;2.38;0.57;;;19.10;99.90;;;;;;5043101;28;20144;-66
2023/06/02 10:26:58;;;;;;;0.45;0.20;;;19.20;99.90;;;;;;5041915;28;20040;-66
2023/06/02 10:29:25;;;;;;;0.00;0.00;;;19.20;99.90;;;;;;5070498;28;20051;-67
2023/06/02 10:31:51;;;;;;;0.10;0.10;;;19.10;99.90;;;;;;5043859;28;20079;-67
2023/06/02 10:34:50;;;;;;;0.20;0.15;;;18.90;99.90;;;;;;5044155;28;20037;-65
2023/06/02 10:37:17;;;;;;;0.00;0.00;;;18.80;99.90;;;;;;5007796;28;20146;-66
2023/06/02 10:39:45;;;;;;;0.10;0.10;;;18.80;99.90;;;;;;5044463;28;20052;-67
2023/06/02 10:42:12;;;;;;;0.20;0.20;;;18.60;99.90;;;;;;5082454;28;20044;-67
2023/06/02 10:44:38;;;;;;;0.55;0.55;;;18.50;99.90;;;;;;5044436;28;20146;-68
2023/06/02 10:47:19;;;;;;;1.25;0.90;;;18.50;99.90;;;;;;5038897;28;20202;-68
2023/06/02 10:50:06;;;;;;;0.32;0.32;;;18.70;99.90;;;;;;5047778;28;20048;-66
2023/06/02 10:52:34;;;;;;;0.10;0.10;;;18.90;99.90;;;;;;5046640;28;20044;-68
2023/06/02 10:55:13;;;;;;;0.13;0.13;;;19.00;99.90;;;;;;5046642;28;20041;-66
2023/06/02 10:58:03;;;;;;;0.17;0.17;;;19.00;99.90;;;;;;5043458;28;20041;-67
2023/06/02 11:00:43;;;;;;;0.50;0.50;;;18.90;99.90;;;;;;5041559;28;20392;-66
2023/06/02 11:03:15;;;;;;;0.10;0.10;;;18.90;99.90;;;;;;5019790;28;20144;-66
2023/06/02 11:05:41;;;;;;;0.03;0.03;;;18.80;99.90;;;;;;5046671;28;20044;-66
2023/06/02 11:08:14;;;;;;;0.10;0.10;;;18.80;99.90;;;;;;5043967;28;20055;-66
2023/06/02 11:10:55;;;;;;;0.20;0.20;;;18.70;99.90;;;;;;5041518;28;20041;-66
2023/06/02 11:13:23;;;;;;;1.20;0.80;;;18.70;99.90;;;;;;5043749;28;20200;-66
2023/06/02 11:15:54;;;;;;;0.00;0.00;;;18.60;99.90;;;;;;5062857;28;20052;-65
2023/06/02 11:18:23;;;;;;;1.10;0.28;;;18.70;99.90;;;;;;5041591;28;20051;-66
2023/06/02 11:20:50;;;;;;;0.22;0.22;;;18.90;99.90;;;;;;5036506;28;20704;-66
2023/06/02 11:23:19;;;;;;;0.10;0.10;;;19.00;99.90;;;;;;5042220;28;20100;-67
2023/06/02 11:25:46;;;;;;;0.00;0.00;;;19.00;99.90;;;;;;5039736;28;20051;-66
2023/06/02 11:28:23;;;;;;;0.10;0.10;;;18.90;99.90;;;;;;5040839;28;20066;-65
2023/06/02 11:31:07;;;;;;;0.10;0.10;;;18.90;99.90;;;;;;5037336;28;20044;-66
2023/06/02 11:33:39;;;;;;;0.10;0.10;;;18.70;99.90;;;;;;5039685;28;20052;-66
2023/06/02 11:36:10;;;;;;;0.00;0.00;;;18.70;99.90;;;;;;5039435;28;20044;-66
2023/06/02 11:38:38;;;;;;;0.25;0.25;;;18.90;99.90;;;;;;5042721;28;20033;-66
2023/06/02 11:41:18;;;;;;;0.00;0.00;;;19.10;99.90;;;;;;5036667;28;20064;-67
2023/06/02 11:43:46;;;;;;;0.30;0.10;;;19.20;99.90;;;;;;5077690;28;20080;-66
2023/06/02 11:46:13;;;;;;;0.10;0.10;;;19.20;99.90;;;;;;5043691;28;20036;-66
2023/06/02 11:48:40;;;;;;;0.00;0.00;;;19.20;99.90;;;;;;5039292;28;20064;-65
2023/06/02 11:51:07;;;;;;;0.20;0.20;;;19.10;99.90;;;;;;5046298;28;20123;-66
2023/06/02 11:53:33;;;;;;;0.00;0.00;;;19.00;99.90;;;;;;5040817;28;20045;-66
2023/06/02 11:56:00;;;;;;;2.90;0.20;;;18.90;99.90;;;;;;5041066;28;20040;-67
2023/06/02 11:58:27;;;;;;;0.10;0.10;;;18.90;99.90;;;;;;5038534;28;20042;-65
2023/06/02 12:01:10;;;;;;;0.10;0.10;;;18.90;99.90;;;;;;5033201;28;20041;-67
2023/06/02 12:03:36;;;;;;;0.10;0.10;;;18.90;99.90;;;;;;5046622;28;20057;-66
2023/06/02 12:06:13;;;;;;;0.00;0.00;;;19.10;99.90;;;;;;5045254;28;20044;-66
2023/06/02 12:08:39;;;;;;;0.20;0.20;;;19.30;99.90;;;;;;5045854;28;20037;-67
2023/06/02 12:11:15;;;;;;;0.20;0.20;;;19.50;99.90;;;;;;5044650;28;20060;-67
2023/06/02 12:13:41;;;;;;;0.10;0.10;;;19.70;99.90;;;;;;5031215;28;20184;-67
2023/06/02 12:16:24;;;;;;;0.35;0.35;;;19.90;99.90;;;;;;5041490;28;20482;-66
2023/06/02 12:18:50;;;;;;;0.08;0.08;;;19.80;99.90;;;;;;5040928;28;20053;-66
2023/06/02 12:21:27;;;;;;;0.43;0.43;;;19.70;99.90;;;;;;5050585;28;20041;-66
2023/06/02 12:23:57;;;;;;;0.45;0.10;;;19.50;99.90;;;;;;5041595;28;20061;-67
2023/06/02 12:26:24;;;;;;;0.10;0.10;;;19.40;99.90;;;;;;5032358;28;20052;-65
2023/06/02 12:28:50;;;;;;;0.22;0.10;;;19.30;99.90;;;;;;5032549;28;20465;-66
2023/06/02 12:31:16;;;;;;;0.00;0.00;;;19.50;99.90;;;;;;5040055;28;20033;-66
2023/06/02 12:33:42;;;;;;;0.10;0.10;;;19.70;99.90;;;;;;5042375;28;20046;-66
2023/06/02 12:36:11;;;;;;;0.10;0.10;;;19.70;99.90;;;;;;5048987;28;20093;-66
2023/06/02 12:38:40;;;;;;;0.00;0.00;;;19.70;99.90;;;;;;5076424;28;20033;-66
2023/06/02 12:41:13;;;;;;;0.00;0.00;;;19.80;99.90;;;;;;5037060;28;20033;-66
2023/06/02 12:43:42;;;;;;;0.17;0.17;;;19.90;99.90;;;;;;5075303;28;20099;-65
2023/06/02 12:46:08;;;;;;;0.55;0.55;;;20.00;99.90;;;;;;5049250;28;20040;-66
2023/06/02 12:48:33;;;;;;;0.10;0.10;;;20.10;99.90;;;;;;5048204;28;20037;-67
2023/06/02 12:50:59;;;;;;;1.25;0.30;;;20.20;99.90;;;;;;5043991;28;20545;-66
2023/06/02 12:53:25;;;;;;;0.50;0.28;;;20.30;99.90;;;;;;5053199;28;20175;-66